createdAt,value
2023-12-04T00:00:01.009Z,0.00
2023-12-04T00:01:01.018Z,0.00
2023-12-04T00:02:00.981Z,0.00
2023-12-04T00:03:00.931Z,0.00
2023-12-04T00:04:01.095Z,0.00
2023-12-04T00:05:00.975Z,0.00
2023-12-04T00:06:00.909Z,0.00
2023-12-04T00:07:00.928Z,0.00
2023-12-04T00:08:00.878Z,0.00
2023-12-04T00:09:00.878Z,0.00
2023-12-04T00:10:00.949Z,0.00
2023-12-04T00:11:00.897Z,0.00
2023-12-04T00:12:00.907Z,0.00
2023-12-04T00:13:00.827Z,0.00
2023-12-04T00:14:00.842Z,0.00
2023-12-04T00:15:00.781Z,0.00
2023-12-04T00:16:00.822Z,0.00
2023-12-04T00:17:00.780Z,0.00
2023-12-04T00:18:00.847Z,0.00
2023-12-04T00:19:00.878Z,0.00
2023-12-04T00:20:00.758Z,0.00
2023-12-04T00:21:00.767Z,0.00
2023-12-04T00:22:00.713Z,0.00
2023-12-04T00:23:00.695Z,0.00
2023-12-04T00:24:00.723Z,0.00
2023-12-04T00:25:00.727Z,0.00
2023-12-04T00:26:00.680Z,0.00
2023-12-04T00:27:00.647Z,0.00
2023-12-04T00:28:00.682Z,0.00
2023-12-04T00:29:00.606Z,0.00
2023-12-04T00:30:00.611Z,0.00
2023-12-04T00:31:00.633Z,0.00
2023-12-04T00:32:00.597Z,0.00
2023-12-04T00:33:00.653Z,0.00
2023-12-04T00:34:00.784Z,0.00
2023-12-04T00:35:00.618Z,0.00
2023-12-04T00:36:00.581Z,0.00
2023-12-04T00:37:00.576Z,0.00
2023-12-04T00:38:00.517Z,0.00
2023-12-04T00:39:00.488Z,0.00
2023-12-04T00:40:00.613Z,0.00
2023-12-04T00:41:00.477Z,0.00
2023-12-04T00:42:00.473Z,0.00
2023-12-04T00:43:00.488Z,0.00
2023-12-04T00:44:00.453Z,0.00
2023-12-04T00:45:00.419Z,0.00
2023-12-04T00:46:00.442Z,0.00
2023-12-04T00:47:00.416Z,0.00
2023-12-04T00:48:00.521Z,0.00
2023-12-04T00:49:00.502Z,0.00
2023-12-04T00:50:00.358Z,0.00
2023-12-04T00:51:00.339Z,0.00
2023-12-04T00:52:00.358Z,0.00
2023-12-04T00:53:00.324Z,0.00
2023-12-04T00:54:00.319Z,0.00
2023-12-04T00:55:00.353Z,0.00
2023-12-04T00:56:00.302Z,0.00
2023-12-04T00:57:00.275Z,0.00
2023-12-04T00:58:00.354Z,0.00
2023-12-04T00:59:00.255Z,0.00
2023-12-04T01:00:00.296Z,0.00
2023-12-04T01:01:00.260Z,0.00
2023-12-04T01:02:00.254Z,0.00
2023-12-04T01:03:00.249Z,0.00
2023-12-04T01:04:00.260Z,0.00
2023-12-04T01:05:00.291Z,0.00
2023-12-04T01:06:00.199Z,0.00
2023-12-04T01:07:00.225Z,0.00
2023-12-04T01:08:00.165Z,0.00
2023-12-04T01:09:00.209Z,0.00
2023-12-04T01:10:00.270Z,0.00
2023-12-04T01:11:00.113Z,0.00
2023-12-04T01:12:00.084Z,0.00
2023-12-04T01:13:00.114Z,0.00
2023-12-04T01:14:00.055Z,0.00
2023-12-04T01:15:00.042Z,0.00
2023-12-04T01:16:00.062Z,0.00
2023-12-04T01:17:00.017Z,0.00
2023-12-04T01:18:00.027Z,0.00
2023-12-04T01:19:00.037Z,0.00
2023-12-04T01:20:00.002Z,0.00
2023-12-04T01:20:59.976Z,0.00
2023-12-04T01:21:59.969Z,0.00
2023-12-04T01:22:59.946Z,0.00
2023-12-04T01:23:59.912Z,0.00
2023-12-04T01:24:59.972Z,0.00
2023-12-04T01:25:59.908Z,0.00
2023-12-04T01:26:59.879Z,0.00
2023-12-04T01:27:59.876Z,0.00
2023-12-04T01:28:59.881Z,0.00
2023-12-04T01:29:59.865Z,0.00
2023-12-04T01:30:59.862Z,0.00
2023-12-04T01:31:59.815Z,0.00
2023-12-04T01:32:59.866Z,0.00
2023-12-04T01:33:59.853Z,0.00
2023-12-04T01:34:59.798Z,0.00
2023-12-04T01:35:59.783Z,0.00
2023-12-04T01:36:59.808Z,0.00
2023-12-04T01:37:59.771Z,0.00
2023-12-04T01:38:59.761Z,0.00
2023-12-04T01:39:59.804Z,0.00
2023-12-04T01:40:59.702Z,0.00
2023-12-04T01:41:59.700Z,0.00
2023-12-04T01:42:59.746Z,0.00
2023-12-04T01:43:59.664Z,0.00
2023-12-04T01:44:59.655Z,0.00
2023-12-04T01:45:59.677Z,0.00
2023-12-04T01:46:59.658Z,0.00
2023-12-04T01:47:59.859Z,0.00
2023-12-04T01:48:59.708Z,0.00
2023-12-04T01:49:59.612Z,0.00
2023-12-04T01:50:59.622Z,0.00
2023-12-04T01:51:59.626Z,0.00
2023-12-04T01:52:59.558Z,0.00
2023-12-04T01:53:59.565Z,0.00
2023-12-04T01:54:59.568Z,0.00
2023-12-04T01:55:59.525Z,0.00
2023-12-04T01:56:59.530Z,0.00
2023-12-04T01:57:59.560Z,0.00
2023-12-04T01:58:59.502Z,0.00
2023-12-04T01:59:59.479Z,0.00
2023-12-04T02:00:59.480Z,0.00
2023-12-04T02:01:59.482Z,0.00
2023-12-04T02:02:59.468Z,0.00
2023-12-04T02:03:59.436Z,0.00
2023-12-04T02:04:59.462Z,0.00
2023-12-04T02:05:59.423Z,0.00
2023-12-04T02:06:59.403Z,0.00
2023-12-04T02:07:59.385Z,0.00
2023-12-04T02:08:59.385Z,0.00
2023-12-04T02:09:59.390Z,0.00
2023-12-04T02:10:59.339Z,0.00
2023-12-04T02:11:59.393Z,0.00
2023-12-04T02:12:59.318Z,0.00
2023-12-04T02:13:59.290Z,0.00
2023-12-04T02:14:59.304Z,0.00
2023-12-04T02:15:59.331Z,0.00
2023-12-04T02:16:59.256Z,0.00
2023-12-04T02:17:59.338Z,0.00
2023-12-04T02:18:59.307Z,0.00
2023-12-04T02:19:59.226Z,0.00
2023-12-04T02:20:59.220Z,0.00
2023-12-04T02:21:59.230Z,0.00
2023-12-04T02:22:59.191Z,0.00
2023-12-04T02:23:59.265Z,0.00
2023-12-04T02:24:59.203Z,0.00
2023-12-04T02:25:59.159Z,0.00
2023-12-04T02:26:59.141Z,0.00
2023-12-04T02:27:59.196Z,0.00
2023-12-04T02:28:59.120Z,0.00
2023-12-04T02:29:59.122Z,0.00
2023-12-04T02:30:59.177Z,0.00
2023-12-04T02:31:59.091Z,0.00
2023-12-04T02:32:59.112Z,0.00
2023-12-04T02:33:59.092Z,0.00
2023-12-04T02:34:59.053Z,0.00
2023-12-04T02:35:59.016Z,0.00
2023-12-04T02:36:59.032Z,0.00
2023-12-04T02:37:59.008Z,0.00
2023-12-04T02:38:58.975Z,0.00
2023-12-04T02:39:58.991Z,0.00
2023-12-04T02:40:58.978Z,0.00
2023-12-04T02:41:58.974Z,0.00
2023-12-04T02:42:58.969Z,0.00
2023-12-04T02:43:58.949Z,0.00
2023-12-04T02:44:58.912Z,0.00
2023-12-04T02:45:58.928Z,0.00
2023-12-04T02:46:58.877Z,0.00
2023-12-04T02:47:58.957Z,0.00
2023-12-04T02:48:58.930Z,0.00
2023-12-04T02:49:58.866Z,0.00
2023-12-04T02:50:58.855Z,0.00
2023-12-04T02:51:58.833Z,0.00
2023-12-04T02:52:58.805Z,0.00
2023-12-04T02:53:58.795Z,0.00
2023-12-04T02:54:58.850Z,0.00
2023-12-04T02:55:58.793Z,0.00
2023-12-04T02:56:58.754Z,0.00
2023-12-04T02:57:58.830Z,0.00
2023-12-04T02:58:58.719Z,0.00
2023-12-04T02:59:58.733Z,0.00
2023-12-04T03:00:58.744Z,0.00
2023-12-04T03:01:58.767Z,0.00
2023-12-04T03:02:58.734Z,0.00
2023-12-04T03:03:58.742Z,0.00
2023-12-04T03:04:58.663Z,0.00
2023-12-04T03:05:58.695Z,0.00
2023-12-04T03:06:58.657Z,0.00
2023-12-04T03:07:58.633Z,0.00
2023-12-04T03:08:58.605Z,0.00
2023-12-04T03:09:58.604Z,0.00
2023-12-04T03:10:58.632Z,0.00
2023-12-04T03:11:58.596Z,0.00
2023-12-04T03:12:58.612Z,0.00
2023-12-04T03:13:58.553Z,0.00
2023-12-04T03:14:58.546Z,0.00
2023-12-04T03:15:58.586Z,0.00
2023-12-04T03:16:58.518Z,0.00
2023-12-04T03:17:58.558Z,0.00
2023-12-04T03:18:58.534Z,0.00
2023-12-04T03:19:58.494Z,0.00
2023-12-04T03:20:58.450Z,0.00
2023-12-04T03:21:58.463Z,0.00
2023-12-04T03:22:58.429Z,0.00
2023-12-04T03:23:58.439Z,0.00
2023-12-04T03:24:58.438Z,0.00
2023-12-04T03:25:58.419Z,0.00
2023-12-04T03:26:58.373Z,0.00
2023-12-04T03:27:58.434Z,0.00
2023-12-04T03:28:58.371Z,0.00
2023-12-04T03:29:58.371Z,0.00
2023-12-04T03:30:58.384Z,0.00
2023-12-04T03:31:58.332Z,0.00
2023-12-04T03:32:58.327Z,0.00
2023-12-04T03:33:58.381Z,0.00
2023-12-04T03:34:58.299Z,0.00
2023-12-04T03:35:58.273Z,0.00
2023-12-04T03:36:58.283Z,0.00
2023-12-04T03:37:58.250Z,0.00
2023-12-04T03:38:58.256Z,0.00
2023-12-04T03:39:58.258Z,0.00
2023-12-04T03:40:58.214Z,0.00
2023-12-04T03:41:58.206Z,0.00
2023-12-04T03:42:58.208Z,0.00
2023-12-04T03:43:58.162Z,0.00
2023-12-04T03:44:58.157Z,0.00
2023-12-04T03:45:58.172Z,0.00
2023-12-04T03:46:58.134Z,0.00
2023-12-04T03:47:58.192Z,0.00
2023-12-04T03:48:58.198Z,0.00
2023-12-04T03:49:58.101Z,0.00
2023-12-04T03:50:58.111Z,0.00
2023-12-04T03:51:58.125Z,0.00
2023-12-04T03:52:58.058Z,0.00
2023-12-04T03:53:58.043Z,0.00
2023-12-04T03:54:58.082Z,0.00
2023-12-04T03:55:58.007Z,0.00
2023-12-04T03:56:58.012Z,0.00
2023-12-04T03:57:58.021Z,0.00
2023-12-04T03:58:57.971Z,0.00
2023-12-04T03:59:57.970Z,0.00
2023-12-04T04:00:57.979Z,0.00
2023-12-04T04:01:57.986Z,0.00
2023-12-04T04:02:57.953Z,0.00
2023-12-04T04:03:57.974Z,0.00
2023-12-04T04:04:57.887Z,0.00
2023-12-04T04:05:57.894Z,0.00
2023-12-04T04:06:57.943Z,0.00
2023-12-04T04:07:57.885Z,0.00
2023-12-04T04:08:57.841Z,0.00
2023-12-04T04:09:57.899Z,0.00
2023-12-04T04:10:57.808Z,0.00
2023-12-04T04:11:57.828Z,0.00
2023-12-04T04:12:57.849Z,0.00
2023-12-04T04:13:57.803Z,0.00
2023-12-04T04:14:57.773Z,0.00
2023-12-04T04:15:57.791Z,0.00
2023-12-04T04:16:57.745Z,0.00
2023-12-04T04:17:57.794Z,0.00
2023-12-04T04:18:57.797Z,0.00
2023-12-04T04:19:57.703Z,0.00
2023-12-04T04:20:57.707Z,0.00
2023-12-04T04:21:57.717Z,0.00
2023-12-04T04:22:57.699Z,0.00
2023-12-04T04:23:57.668Z,0.00
2023-12-04T04:24:58.436Z,0.00
2023-12-04T04:25:57.638Z,0.00
2023-12-04T04:26:57.621Z,0.00
2023-12-04T04:27:57.658Z,0.00
2023-12-04T04:28:57.608Z,0.00
2023-12-04T04:29:57.597Z,0.00
2023-12-04T04:30:57.606Z,0.00
2023-12-04T04:31:57.580Z,0.00
2023-12-04T04:32:57.610Z,0.00
2023-12-04T04:33:57.636Z,0.00
2023-12-04T04:34:57.557Z,0.00
2023-12-04T04:35:57.521Z,0.00
2023-12-04T04:36:57.527Z,0.00
2023-12-04T04:37:57.480Z,0.00
2023-12-04T04:38:57.465Z,0.00
2023-12-04T04:39:57.577Z,0.00
2023-12-04T04:40:57.460Z,0.00
2023-12-04T04:41:57.446Z,0.00
2023-12-04T04:42:57.488Z,0.00
2023-12-04T04:43:57.421Z,0.00
2023-12-04T04:44:57.412Z,0.00
2023-12-04T04:45:57.425Z,0.00
2023-12-04T04:46:57.419Z,0.00
2023-12-04T04:47:57.380Z,0.00
2023-12-04T04:48:57.388Z,0.00
2023-12-04T04:49:57.400Z,0.00
2023-12-04T04:50:57.335Z,0.00
2023-12-04T04:51:57.346Z,0.00
2023-12-04T04:52:57.289Z,0.00
2023-12-04T04:53:57.281Z,0.00
2023-12-04T04:54:57.301Z,0.00
2023-12-04T04:55:57.277Z,0.00
2023-12-04T04:56:57.274Z,0.00
2023-12-04T04:57:57.287Z,0.00
2023-12-04T04:58:57.258Z,0.00
2023-12-04T04:59:57.199Z,0.00
2023-12-04T05:00:57.243Z,0.00
2023-12-04T05:01:57.232Z,0.00
2023-12-04T05:02:57.232Z,0.00
2023-12-04T05:03:57.249Z,0.00
2023-12-04T05:04:57.203Z,0.00
2023-12-04T05:05:57.184Z,0.00
2023-12-04T05:06:57.181Z,0.00
2023-12-04T05:07:57.130Z,0.00
2023-12-04T05:08:57.083Z,0.00
2023-12-04T05:09:57.106Z,0.00
2023-12-04T05:10:57.080Z,0.00
2023-12-04T05:11:57.055Z,0.00
2023-12-04T05:12:57.066Z,0.00
2023-12-04T05:13:57.026Z,0.00
2023-12-04T05:14:57.028Z,0.00
2023-12-04T05:15:57.027Z,0.00
2023-12-04T05:16:57.002Z,0.00
2023-12-04T05:17:56.995Z,0.00
2023-12-04T05:18:57.030Z,0.00
2023-12-04T05:19:57.025Z,0.00
2023-12-04T05:20:56.947Z,0.00
2023-12-04T05:21:57.001Z,0.00
2023-12-04T05:22:56.910Z,0.00
2023-12-04T05:23:56.888Z,0.00
2023-12-04T05:24:56.945Z,0.00
2023-12-04T05:25:56.865Z,0.00
2023-12-04T05:26:56.886Z,0.00
2023-12-04T05:27:56.860Z,0.00
2023-12-04T05:28:56.827Z,0.00
2023-12-04T05:29:56.841Z,0.00
2023-12-04T05:30:56.856Z,0.00
2023-12-04T05:31:56.800Z,0.00
2023-12-04T05:32:56.852Z,0.00
2023-12-04T05:33:56.883Z,0.00
2023-12-04T05:34:56.758Z,0.00
2023-12-04T05:35:56.776Z,0.00
2023-12-04T05:36:56.793Z,0.00
2023-12-04T05:37:56.714Z,0.00
2023-12-04T05:38:57.989Z,0.00
2023-12-04T05:39:56.736Z,0.00
2023-12-04T05:40:56.694Z,0.00
2023-12-04T05:41:56.690Z,0.00
2023-12-04T05:42:56.711Z,0.00
2023-12-04T05:43:56.644Z,0.00
2023-12-04T05:44:56.798Z,0.00
2023-12-04T05:45:56.643Z,0.00
2023-12-04T05:46:56.615Z,0.00
2023-12-04T05:47:56.609Z,0.00
2023-12-04T05:48:56.683Z,0.00
2023-12-04T05:49:56.658Z,0.00
2023-12-04T05:50:56.574Z,0.00
2023-12-04T05:51:56.598Z,0.00
2023-12-04T05:52:56.541Z,0.00
2023-12-04T05:53:56.521Z,0.00
2023-12-04T05:54:56.596Z,0.00
2023-12-04T05:55:56.496Z,0.00
2023-12-04T05:56:56.503Z,0.00
2023-12-04T05:57:56.516Z,0.00
2023-12-04T05:58:56.506Z,0.00
2023-12-04T05:59:56.468Z,0.00
2023-12-04T06:00:56.521Z,0.00
2023-12-04T06:01:56.492Z,0.00
2023-12-04T06:02:56.504Z,0.00
2023-12-04T06:03:56.452Z,0.00
2023-12-04T06:04:56.436Z,0.00
2023-12-04T06:05:58.433Z,0.00
2023-12-04T06:06:56.402Z,0.00
2023-12-04T06:07:56.395Z,0.00
2023-12-04T06:08:56.356Z,0.00
2023-12-04T06:09:56.364Z,0.00
2023-12-04T06:10:56.320Z,0.00
2023-12-04T06:11:56.373Z,0.00
2023-12-04T06:12:56.311Z,0.00
2023-12-04T06:13:56.381Z,0.00
2023-12-04T06:14:56.276Z,0.00
2023-12-04T06:15:56.327Z,0.00
2023-12-04T06:16:56.248Z,0.00
2023-12-04T06:17:56.285Z,0.00
2023-12-04T06:18:56.299Z,0.00
2023-12-04T06:19:56.228Z,0.00
2023-12-04T06:20:56.224Z,0.00
2023-12-04T06:21:56.201Z,0.00
2023-12-04T06:22:56.180Z,0.00
2023-12-04T06:23:56.153Z,0.00
2023-12-04T06:24:56.182Z,0.00
2023-12-04T06:25:56.145Z,0.00
2023-12-04T06:26:56.133Z,0.00
2023-12-04T06:27:56.156Z,0.00
2023-12-04T06:28:56.105Z,0.00
2023-12-04T06:29:56.090Z,0.00
2023-12-04T06:30:56.105Z,0.00
2023-12-04T06:31:56.052Z,0.00
2023-12-04T06:32:56.108Z,0.00
2023-12-04T06:33:56.121Z,0.00
2023-12-04T06:34:56.068Z,0.00
2023-12-04T06:35:56.028Z,0.00
2023-12-04T06:36:56.025Z,0.00
2023-12-04T06:37:56.047Z,0.00
2023-12-04T06:38:55.988Z,0.00
2023-12-04T06:39:55.979Z,0.00
2023-12-04T06:40:55.934Z,0.00
2023-12-04T06:41:55.949Z,0.00
2023-12-04T06:42:56.022Z,0.00
2023-12-04T06:43:55.910Z,0.00
2023-12-04T06:44:56.052Z,0.00
2023-12-04T06:45:55.914Z,0.00
2023-12-04T06:46:55.910Z,0.00
2023-12-04T06:47:55.889Z,5.62
2023-12-04T06:48:55.937Z,5.62
2023-12-04T06:49:55.831Z,5.62
2023-12-04T06:50:55.820Z,5.62
2023-12-04T06:51:55.849Z,5.62
2023-12-04T06:52:55.815Z,5.62
2023-12-04T06:53:55.786Z,5.62
2023-12-04T06:54:55.850Z,5.62
2023-12-04T06:55:55.768Z,5.62
2023-12-04T06:56:55.763Z,5.62
2023-12-04T06:57:55.772Z,11.25
2023-12-04T06:58:55.771Z,11.25
2023-12-04T06:59:55.701Z,11.25
2023-12-04T07:00:55.749Z,11.25
2023-12-04T07:01:55.730Z,11.25
2023-12-04T07:02:55.705Z,11.25
2023-12-04T07:03:55.741Z,11.25
2023-12-04T07:04:55.715Z,16.88
2023-12-04T07:05:55.717Z,16.88
2023-12-04T07:06:55.747Z,16.88
2023-12-04T07:07:55.646Z,16.88
2023-12-04T07:08:55.643Z,22.50
2023-12-04T07:09:55.655Z,22.50
2023-12-04T07:10:55.587Z,22.50
2023-12-04T07:11:55.667Z,28.12
2023-12-04T07:12:55.580Z,28.12
2023-12-04T07:13:55.542Z,28.12
2023-12-04T07:14:55.538Z,28.12
2023-12-04T07:15:55.557Z,28.12
2023-12-04T07:16:55.491Z,28.12
2023-12-04T07:17:57.446Z,28.12
2023-12-04T07:18:55.554Z,33.75
2023-12-04T07:19:55.488Z,33.75
2023-12-04T07:20:55.442Z,33.75
2023-12-04T07:21:55.474Z,33.75
2023-12-04T07:22:55.437Z,33.75
2023-12-04T07:23:55.396Z,39.38
2023-12-04T07:24:55.444Z,39.38
2023-12-04T07:25:55.404Z,39.38
2023-12-04T07:26:55.384Z,39.38
2023-12-04T07:27:55.398Z,45.00
2023-12-04T07:28:55.337Z,45.00
2023-12-04T07:29:55.355Z,45.00
2023-12-04T07:30:55.349Z,45.00
2023-12-04T07:31:55.318Z,45.00
2023-12-04T07:32:55.332Z,50.62
2023-12-04T07:33:55.454Z,50.62
2023-12-04T07:34:55.492Z,50.62
2023-12-04T07:35:55.266Z,50.62
2023-12-04T07:36:55.272Z,56.25
2023-12-04T07:37:55.234Z,56.25
2023-12-04T07:38:55.306Z,61.88
2023-12-04T07:39:55.252Z,61.88
2023-12-04T07:40:55.196Z,61.88
2023-12-04T07:41:55.210Z,61.88
2023-12-04T07:42:55.210Z,61.88
2023-12-04T07:43:55.159Z,67.50
2023-12-04T07:44:55.150Z,67.50
2023-12-04T07:45:55.186Z,67.50
2023-12-04T07:46:55.137Z,67.50
2023-12-04T07:47:55.139Z,67.50
2023-12-04T07:48:56.518Z,67.50
2023-12-04T07:49:55.105Z,67.50
2023-12-04T07:50:55.123Z,67.50
2023-12-04T07:51:55.100Z,67.50
2023-12-04T07:52:55.053Z,73.12
2023-12-04T07:53:55.111Z,73.12
2023-12-04T07:54:55.027Z,73.12
2023-12-04T07:55:55.380Z,73.12
2023-12-04T07:56:55.118Z,78.75
2023-12-04T07:57:55.013Z,78.75
2023-12-04T07:58:55.016Z,78.75
2023-12-04T07:59:55.369Z,84.38
2023-12-04T08:00:55.109Z,84.38
2023-12-04T08:01:54.946Z,84.38
2023-12-04T08:02:54.941Z,84.38
2023-12-04T08:03:55.332Z,84.38
2023-12-04T08:04:54.956Z,84.38
2023-12-04T08:05:55.124Z,90.00
2023-12-04T08:06:54.933Z,90.00
2023-12-04T08:07:54.845Z,90.00
2023-12-04T08:08:54.867Z,90.00
2023-12-04T08:09:54.852Z,95.62
2023-12-04T08:10:54.848Z,95.62
2023-12-04T08:11:57.256Z,95.62
2023-12-04T08:12:54.820Z,95.62
2023-12-04T08:13:54.816Z,95.62
2023-12-04T08:14:54.789Z,95.62
2023-12-04T08:15:54.775Z,101.25
2023-12-04T08:16:54.737Z,101.25
2023-12-04T08:17:54.793Z,101.25
2023-12-04T08:18:54.904Z,101.25
2023-12-04T08:19:54.855Z,106.88
2023-12-04T08:20:54.805Z,112.50
2023-12-04T08:21:54.772Z,112.50
2023-12-04T08:22:54.679Z,112.50
2023-12-04T08:23:54.654Z,118.12
2023-12-04T08:24:54.754Z,118.12
2023-12-04T08:25:54.636Z,123.75
2023-12-04T08:26:54.646Z,123.75
2023-12-04T08:27:54.620Z,129.38
2023-12-04T08:28:54.604Z,129.38
2023-12-04T08:29:54.603Z,129.38
2023-12-04T08:30:54.597Z,129.38
2023-12-04T08:31:54.569Z,135.00
2023-12-04T08:32:54.643Z,135.00
2023-12-04T08:33:54.557Z,135.00
2023-12-04T08:34:54.526Z,140.62
2023-12-04T08:35:54.537Z,140.62
2023-12-04T08:36:54.609Z,146.25
2023-12-04T08:37:54.661Z,146.25
2023-12-04T08:38:54.534Z,146.25
2023-12-04T08:39:56.209Z,146.25
2023-12-04T08:40:54.462Z,146.25
2023-12-04T08:42:01.552Z,146.25
2023-12-04T08:42:54.551Z,146.25
2023-12-04T08:43:54.445Z,146.25
2023-12-04T08:44:54.414Z,146.25
2023-12-04T08:45:54.575Z,146.25
2023-12-04T08:46:54.449Z,146.25
2023-12-04T08:47:54.652Z,151.88
2023-12-04T08:48:54.466Z,151.88
2023-12-04T08:49:54.356Z,151.88
2023-12-04T08:50:54.432Z,151.88
2023-12-04T08:51:54.358Z,151.88
2023-12-04T08:52:54.312Z,151.88
2023-12-04T08:53:54.562Z,151.88
2023-12-04T08:54:54.269Z,151.88
2023-12-04T08:55:54.373Z,151.88
2023-12-04T08:56:54.319Z,157.50
2023-12-04T08:57:54.305Z,157.50
2023-12-04T08:58:54.308Z,157.50
2023-12-04T08:59:54.342Z,157.50
2023-12-04T09:00:54.220Z,157.50
2023-12-04T09:01:54.217Z,157.50
2023-12-04T09:03:02.369Z,157.50
2023-12-04T09:03:54.705Z,157.50
2023-12-04T09:04:54.226Z,157.50
2023-12-04T09:05:54.250Z,157.50
2023-12-04T09:09:54.137Z,157.50
2023-12-04T09:11:04.028Z,151.88
2023-12-04T09:11:54.066Z,151.88
2023-12-04T09:12:54.030Z,146.25
2023-12-04T09:13:54.051Z,146.25
2023-12-04T09:14:54.012Z,146.25
2023-12-04T09:15:54.179Z,140.62
2023-12-04T09:16:54.014Z,140.62
2023-12-04T09:17:54.009Z,140.62
2023-12-04T09:18:54.033Z,135.00
2023-12-04T09:19:54.283Z,135.00
2023-12-04T09:20:53.974Z,135.00
2023-12-04T09:21:59.879Z,135.00
2023-12-04T09:23:00.505Z,129.38
2023-12-04T09:23:54.188Z,129.38
2023-12-04T09:24:53.934Z,129.38
2023-12-04T09:25:53.868Z,129.38
2023-12-04T09:26:53.853Z,129.38
2023-12-04T09:27:53.898Z,129.38
2023-12-04T09:28:53.846Z,135.00
2023-12-04T09:29:53.829Z,135.00
2023-12-04T09:30:53.902Z,135.00
2023-12-04T09:31:54.086Z,140.62
2023-12-04T09:32:53.825Z,140.62
2023-12-04T09:33:54.237Z,146.25
2023-12-04T09:34:53.767Z,151.88
2023-12-04T09:35:54.089Z,151.88
2023-12-04T09:36:55.572Z,157.50
2023-12-04T09:37:53.748Z,157.50
2023-12-04T09:38:53.819Z,157.50
2023-12-04T09:39:53.689Z,157.50
2023-12-04T09:40:53.688Z,157.50
2023-12-04T09:41:53.676Z,163.12
2023-12-04T09:42:53.774Z,163.12
2023-12-04T09:43:54.101Z,163.12
2023-12-04T09:44:53.740Z,168.75
2023-12-04T09:45:53.997Z,168.75
2023-12-04T09:46:53.617Z,174.38
2023-12-04T09:47:53.869Z,174.38
2023-12-04T09:48:53.778Z,180.00
2023-12-04T09:49:53.741Z,174.38
2023-12-04T09:50:53.556Z,174.38
2023-12-04T09:51:53.577Z,174.38
2023-12-04T09:52:53.722Z,174.38
2023-12-04T09:53:53.888Z,168.75
2023-12-04T09:54:53.520Z,168.75
2023-12-04T09:55:53.631Z,163.12
2023-12-04T09:56:53.562Z,163.12
2023-12-04T09:57:53.480Z,168.75
2023-12-04T09:58:53.638Z,168.75
2023-12-04T09:59:53.506Z,174.38
2023-12-04T10:00:53.424Z,174.38
2023-12-04T10:01:53.718Z,180.00
2023-12-04T10:02:53.531Z,180.00
2023-12-04T10:03:53.513Z,185.62
2023-12-04T10:04:53.582Z,185.62
2023-12-04T10:05:53.383Z,191.25
2023-12-04T10:06:53.457Z,196.88
2023-12-04T10:07:53.647Z,196.88
2023-12-04T10:08:53.387Z,202.50
2023-12-04T10:09:53.421Z,202.50
2023-12-04T10:10:53.309Z,202.50
2023-12-04T10:11:53.471Z,202.50
2023-12-04T10:12:53.508Z,208.12
2023-12-04T10:13:58.367Z,208.12
2023-12-04T10:14:53.700Z,213.75
2023-12-04T10:15:53.377Z,213.75
2023-12-04T10:16:53.260Z,213.75
2023-12-04T10:17:53.333Z,219.38
2023-12-04T10:18:53.615Z,219.38
2023-12-04T10:19:53.246Z,219.38
2023-12-04T10:20:53.176Z,225.00
2023-12-04T10:21:53.287Z,225.00
2023-12-04T10:22:53.158Z,230.62
2023-12-04T10:23:53.142Z,230.62
2023-12-04T10:24:53.166Z,236.25
2023-12-04T10:25:53.119Z,236.25
2023-12-04T10:26:53.119Z,236.25
2023-12-04T10:27:53.222Z,241.88
2023-12-04T10:28:53.081Z,241.88
2023-12-04T10:29:53.073Z,241.88
2023-12-04T10:30:53.073Z,241.88
2023-12-04T10:31:53.044Z,241.88
2023-12-04T10:32:53.103Z,241.88
2023-12-04T10:33:53.121Z,241.88
2023-12-04T10:34:53.020Z,247.50
2023-12-04T10:35:53.024Z,253.12
2023-12-04T10:36:52.968Z,258.75
2023-12-04T10:37:52.981Z,264.38
2023-12-04T10:38:52.997Z,270.00
2023-12-04T10:39:53.080Z,275.62
2023-12-04T10:40:52.944Z,281.25
2023-12-04T10:41:52.934Z,281.25
2023-12-04T10:42:52.920Z,281.25
2023-12-04T10:43:57.727Z,286.88
2023-12-04T10:44:52.892Z,286.88
2023-12-04T10:45:52.878Z,286.88
2023-12-04T10:46:52.879Z,286.88
2023-12-04T10:47:52.944Z,286.88
2023-12-04T10:48:52.948Z,281.25
2023-12-04T10:49:52.971Z,281.25
2023-12-04T10:50:52.796Z,275.62
2023-12-04T10:51:52.810Z,275.62
2023-12-04T10:52:52.788Z,270.00
2023-12-04T10:53:52.792Z,264.38
2023-12-04T10:54:52.821Z,264.38
2023-12-04T10:55:52.747Z,264.38
2023-12-04T10:56:52.756Z,258.75
2023-12-04T10:57:52.735Z,264.38
2023-12-04T10:58:52.704Z,264.38
2023-12-04T10:59:52.717Z,264.38
2023-12-04T11:00:52.724Z,258.75
2023-12-04T11:01:52.808Z,258.75
2023-12-04T11:02:52.734Z,253.12
2023-12-04T11:03:52.722Z,247.50
2023-12-04T11:04:52.698Z,247.50
2023-12-04T11:05:52.623Z,247.50
2023-12-04T11:06:52.623Z,241.88
2023-12-04T11:08:13.782Z,241.88
2023-12-04T11:08:52.568Z,236.25
2023-12-04T11:09:52.557Z,236.25
2023-12-04T11:10:52.555Z,236.25
2023-12-04T11:11:52.589Z,230.62
2023-12-04T11:12:52.574Z,230.62
2023-12-04T11:13:52.541Z,230.62
2023-12-04T11:14:52.506Z,230.62
2023-12-04T11:15:52.566Z,230.62
2023-12-04T11:16:52.501Z,236.25
2023-12-04T11:17:52.512Z,236.25
2023-12-04T11:18:52.563Z,236.25
2023-12-04T11:19:52.529Z,236.25
2023-12-04T11:20:52.414Z,236.25
2023-12-04T11:21:52.434Z,236.25
2023-12-04T11:22:52.386Z,236.25
2023-12-04T11:23:52.390Z,236.25
2023-12-04T11:24:52.390Z,236.25
2023-12-04T11:25:52.379Z,236.25
2023-12-04T11:26:52.352Z,236.25
2023-12-04T11:27:52.341Z,230.62
2023-12-04T11:28:52.309Z,230.62
2023-12-04T11:29:52.320Z,230.62
2023-12-04T11:30:52.351Z,230.62
2023-12-04T11:31:52.306Z,225.00
2023-12-04T11:32:53.071Z,225.00
2023-12-04T11:33:52.376Z,225.00
2023-12-04T11:34:52.286Z,225.00
2023-12-04T11:35:52.259Z,225.00
2023-12-04T11:36:52.288Z,225.00
2023-12-04T11:37:52.221Z,225.00
2023-12-04T11:38:52.207Z,225.00
2023-12-04T11:39:52.314Z,225.00
2023-12-04T11:40:52.167Z,225.00
2023-12-04T11:41:52.158Z,230.62
2023-12-04T11:42:52.189Z,230.62
2023-12-04T11:43:52.128Z,230.62
2023-12-04T11:44:52.131Z,230.62
2023-12-04T11:45:52.119Z,230.62
2023-12-04T11:46:52.082Z,230.62
2023-12-04T11:47:52.189Z,236.25
2023-12-04T11:48:52.168Z,230.62
2023-12-04T11:49:52.085Z,230.62
2023-12-04T11:50:52.044Z,236.25
2023-12-04T11:51:52.620Z,236.25
2023-12-04T11:52:52.068Z,236.25
2023-12-04T11:53:51.990Z,241.88
2023-12-04T11:54:51.995Z,241.88
2023-12-04T11:55:51.981Z,247.50
2023-12-04T11:56:51.964Z,247.50
2023-12-04T11:57:51.985Z,247.50
2023-12-04T11:58:51.934Z,253.12
2023-12-04T11:59:51.962Z,253.12
2023-12-04T12:00:51.966Z,253.12
2023-12-04T12:01:51.978Z,253.12
2023-12-04T12:03:15.362Z,253.12
2023-12-04T12:03:52.313Z,253.12
2023-12-04T12:04:52.310Z,253.12
2023-12-04T12:05:53.073Z,247.50
2023-12-04T12:06:52.116Z,247.50
2023-12-04T12:07:51.810Z,247.50
2023-12-04T12:08:51.802Z,247.50
2023-12-04T12:09:51.856Z,253.12
2023-12-04T12:10:51.822Z,247.50
2023-12-04T12:11:51.835Z,247.50
2023-12-04T12:12:51.834Z,247.50
2023-12-04T12:13:51.865Z,247.50
2023-12-04T12:14:51.717Z,241.88
2023-12-04T12:15:52.105Z,241.88
2023-12-04T12:16:51.711Z,241.88
2023-12-04T12:17:51.746Z,241.88
2023-12-04T12:18:52.115Z,236.25
2023-12-04T12:19:51.676Z,236.25
2023-12-04T12:20:51.646Z,230.62
2023-12-04T12:21:51.703Z,230.62
2023-12-04T12:22:51.842Z,225.00
2023-12-04T12:23:51.645Z,225.00
2023-12-04T12:24:51.587Z,225.00
2023-12-04T12:25:51.928Z,219.38
2023-12-04T12:26:51.600Z,219.38
2023-12-04T12:27:51.646Z,219.38
2023-12-04T12:28:51.536Z,219.38
2023-12-04T12:29:51.544Z,219.38
2023-12-04T12:30:51.528Z,219.38
2023-12-04T12:31:51.529Z,219.38
2023-12-04T12:32:51.701Z,219.38
2023-12-04T12:33:51.572Z,219.38
2023-12-04T12:34:51.737Z,213.75
2023-12-04T12:35:57.898Z,213.75
2023-12-04T12:36:51.537Z,213.75
2023-12-04T12:37:52.119Z,208.12
2023-12-04T12:38:51.447Z,208.12
2023-12-04T12:39:51.425Z,208.12
2023-12-04T12:40:51.411Z,208.12
2023-12-04T12:41:51.394Z,208.12
2023-12-04T12:42:51.390Z,208.12
2023-12-04T12:43:51.354Z,208.12
2023-12-04T12:44:51.349Z,208.12
2023-12-04T12:45:51.372Z,208.12
2023-12-04T12:46:51.323Z,202.50
2023-12-04T12:47:51.390Z,202.50
2023-12-04T12:48:51.381Z,196.88
2023-12-04T12:49:51.371Z,196.88
2023-12-04T12:50:51.283Z,191.25
2023-12-04T12:51:51.849Z,191.25
2023-12-04T12:52:51.252Z,191.25
2023-12-04T12:53:52.615Z,185.62
2023-12-04T12:54:51.208Z,180.00
2023-12-04T12:55:51.209Z,180.00
2023-12-04T12:56:51.211Z,174.38
2023-12-04T12:57:51.223Z,174.38
2023-12-04T12:58:51.173Z,168.75
2023-12-04T12:59:51.155Z,168.75